Time;durP1;ratioP1;P1;durP2;ratioP2;P2;SDS_P1;SDS_P2;PMS_P1;PMS_P2;Temp;Humidity;BMP_temperature;BMP_pressure;BME280_temperature;BME280_humidity;BME280_pressure;Samples;Min_cycle;Max_cycle;Signal;HPM_P1;HPM_P2
2023/12/19 00:01:15;;;;;;;36.97;23.73;;;;;;;4.48;100.00;102542.13;5035079;28;20037;-57
2023/12/19 00:03:40;;;;;;;34.60;22.05;;;;;;;4.48;100.00;102556.16;5032546;28;20100;-57
2023/12/19 00:06:05;;;;;;;32.22;22.95;;;;;;;4.49;100.00;102554.41;5032283;28;20049;-57
2023/12/19 00:08:31;;;;;;;33.22;23.85;;;;;;;4.50;100.00;102559.63;5034833;28;20018;-58
2023/12/19 00:10:56;;;;;;;34.35;22.40;;;;;;;4.50;100.00;102546.47;5032746;28;20048;-56
2023/12/19 00:13:21;;;;;;;35.70;23.17;;;;;;;4.51;100.00;102542.91;5031664;28;20049;-56
2023/12/19 00:15:46;;;;;;;34.47;22.17;;;;;;;4.54;100.00;102548.09;5031363;28;20384;-56
2023/12/19 00:18:12;;;;;;;33.70;23.10;;;;;;;4.55;100.00;102533.22;5034680;28;20032;-55
2023/12/19 00:20:37;;;;;;;34.90;22.35;;;;;;;4.55;100.00;102518.28;5035242;28;20032;-54
2023/12/19 00:23:02;;;;;;;35.20;23.10;;;;;;;4.59;100.00;102524.31;5033439;28;20037;-55
2023/12/19 00:25:30;;;;;;;36.28;22.15;;;;;;;4.62;100.00;102514.56;5035429;28;20037;-55
2023/12/19 00:27:55;;;;;;;35.65;22.90;;;;;;;4.62;100.00;102514.56;5032338;28;20103;-53
2023/12/19 00:30:20;;;;;;;34.10;23.10;;;;;;;4.67;100.00;102518.88;5036041;28;20025;-53
2023/12/19 00:32:46;;;;;;;33.08;21.75;;;;;;;4.69;100.00;102511.81;5033549;28;20407;-54
2023/12/19 00:35:11;;;;;;;36.97;22.92;;;;;;;4.71;100.00;102502.94;5037886;28;20087;-56
2023/12/19 00:37:36;;;;;;;36.97;23.52;;;;;;;4.73;100.00;102497.66;5037164;28;20092;-56
2023/12/19 00:40:03;;;;;;;35.13;21.67;;;;;;;4.73;100.00;102490.63;5033389;28;20021;-54
2023/12/19 00:42:28;;;;;;;32.05;22.55;;;;;;;4.76;100.00;102494.94;5032685;28;20430;-55
2023/12/19 00:44:54;;;;;;;34.30;22.25;;;;;;;4.77;100.00;102494.06;5033380;28;20026;-55
2023/12/19 00:47:19;;;;;;;32.75;22.08;;;;;;;4.77;100.00;102492.28;5034192;28;20021;-56
2023/12/19 00:49:44;;;;;;;35.72;22.13;;;;;;;4.79;100.00;102471.19;5031410;28;20029;-56
2023/12/19 00:52:10;;;;;;;35.35;22.67;;;;;;;4.80;100.00;102468.50;5033073;28;20022;-57
2023/12/19 00:54:35;;;;;;;33.35;21.65;;;;;;;4.86;100.00;102464.84;5031767;28;20033;-55
2023/12/19 00:57:00;;;;;;;33.65;22.73;;;;;;;4.85;100.00;102459.63;5033122;28;20032;-55
2023/12/19 00:59:26;;;;;;;39.28;21.95;;;;;;;4.85;100.00;102459.63;5031132;28;21197;-56
2023/12/19 01:01:51;;;;;;;34.30;22.77;;;;;;;4.85;100.00;102451.75;5033301;28;20049;-55
2023/12/19 01:04:17;;;;;;;32.90;22.35;;;;;;;4.88;100.00;102456.91;5028248;28;20075;-55
2023/12/19 01:06:43;;;;;;;32.65;22.25;;;;;;;4.89;100.00;102453.38;5032238;28;20052;-56
2023/12/19 01:09:09;;;;;;;34.70;22.95;;;;;;;4.89;100.00;102442.84;5035694;28;20025;-55
2023/12/19 01:11:35;;;;;;;33.08;22.30;;;;;;;4.89;100.00;102433.16;5036999;28;20029;-55
2023/12/19 01:14:00;;;;;;;31.25;21.42;;;;;;;4.92;100.00;102427.81;5033078;28;20096;-56
2023/12/19 01:16:26;;;;;;;32.90;22.85;;;;;;;4.92;100.00;102433.09;5034319;28;20032;-55
2023/12/19 01:18:51;;;;;;;35.33;22.10;;;;;;;4.96;100.00;102424.22;5030240;28;20028;-56
2023/12/19 01:21:16;;;;;;;36.25;22.48;;;;;;;4.95;100.00;102427.75;5033075;28;20022;-53
2023/12/19 01:23:42;;;;;;;31.55;22.58;;;;;;;4.97;100.00;102427.69;5034910;28;20013;-57
2023/12/19 01:26:07;;;;;;;32.30;22.45;;;;;;;4.97;100.00;102432.97;5036375;28;20028;-56
2023/12/19 01:28:33;;;;;;;37.78;23.73;;;;;;;4.97;100.00;102431.19;5032745;28;20026;-57
2023/12/19 01:30:59;;;;;;;38.08;23.40;;;;;;;4.97;100.00;102423.28;5034288;28;20032;-54
2023/12/19 01:33:24;;;;;;;36.60;22.67;;;;;;;5.00;100.00;102422.34;5014678;28;20026;-55
2023/12/19 01:35:50;;;;;;;35.63;23.27;;;;;;;4.98;100.00;102425.03;5034125;28;20421;-56
2023/12/19 01:38:15;;;;;;;35.72;23.33;;;;;;;4.99;100.00;102431.16;5031963;28;20567;-54
2023/12/19 01:40:41;;;;;;;38.97;23.23;;;;;;;5.02;100.00;102424.94;5032795;28;20032;-55
2023/12/19 01:43:18;;;;;;;38.38;22.95;;;;;;;5.05;100.00;102433.63;5029853;28;20075;-53
2023/12/19 01:45:44;;;;;;;35.45;23.75;;;;;;;5.06;100.00;102431.84;5031383;28;20031;-54
2023/12/19 01:48:09;;;;;;;31.48;22.63;;;;;;;5.06;100.00;102423.94;5015919;28;20104;-58
2023/12/19 01:50:34;;;;;;;37.13;23.73;;;;;;;5.05;100.00;102438.03;5033900;28;20112;-56
2023/12/19 01:53:00;;;;;;;39.28;23.08;;;;;;;5.04;100.00;102425.75;5030863;28;20420;-57
2023/12/19 01:55:26;;;;;;;36.40;22.58;;;;;;;5.04;100.00;102416.06;5034158;28;20470;-57
2023/12/19 01:57:54;;;;;;;34.60;23.40;;;;;;;5.03;100.00;102419.63;5007904;28;20148;-57
2023/12/19 02:00:20;;;;;;;39.42;23.85;;;;;;;5.03;100.00;102421.38;5030418;28;20021;-57
2023/12/19 02:02:46;;;;;;;38.60;23.80;;;;;;;5.03;100.00;102408.22;5031772;28;21196;-57
2023/12/19 02:05:11;;;;;;;43.15;24.60;;;;;;;4.99;100.00;102410.94;5030773;28;20021;-58
2023/12/19 02:07:37;;;;;;;36.47;24.45;;;;;;;5.02;100.00;102414.41;5033111;28;20075;-57
2023/12/19 02:10:03;;;;;;;37.83;23.88;;;;;;;5.00;100.00;102411.81;5031632;28;20029;-57
2023/12/19 02:12:28;;;;;;;36.47;23.02;;;;;;;5.00;100.00;102404.78;5031310;28;20042;-57
2023/12/19 02:14:54;;;;;;;34.60;22.77;;;;;;;5.01;100.00;102413.53;5030557;28;20021;-56
2023/12/19 02:17:20;;;;;;;34.78;23.45;;;;;;;5.02;100.00;102410.00;5032932;28;20413;-58
2023/12/19 02:19:49;;;;;;;34.33;23.05;;;;;;;5.02;100.00;102395.97;5030434;28;20061;-58
2023/12/19 02:22:15;;;;;;;38.90;23.50;;;;;;;5.00;100.00;102388.13;5031515;28;20045;-56
2023/12/19 02:24:41;;;;;;;36.08;24.38;;;;;;;4.99;100.00;102381.97;5032097;28;20084;-57
2023/12/19 02:27:08;;;;;;;36.58;23.60;;;;;;;5.00;100.00;102377.59;5032231;28;20044;-57
2023/12/19 02:29:34;;;;;;;37.45;22.55;;;;;;;4.99;100.00;102373.22;5029566;28;20037;-57
2023/12/19 02:31:59;;;;;;;33.88;23.15;;;;;;;4.97;100.00;102378.53;5030824;28;20022;-57
2023/12/19 02:34:24;;;;;;;33.15;22.70;;;;;;;4.99;100.00;102375.84;5031752;28;20030;-57
2023/12/19 02:36:50;;;;;;;35.00;23.25;;;;;;;4.96;100.00;102379.44;5029272;28;20136;-56
2023/12/19 02:39:15;;;;;;;38.78;22.58;;;;;;;4.96;100.00;102378.56;5031299;28;20105;-56
2023/12/19 02:41:41;;;;;;;35.85;22.65;;;;;;;4.96;100.00;102375.94;5036303;28;20474;-56
2023/12/19 02:44:06;;;;;;;33.13;22.08;;;;;;;4.96;100.00;102375.94;5037251;28;20017;-57
2023/12/19 02:46:32;;;;;;;34.33;22.10;;;;;;;4.97;100.00;102367.13;5031772;28;20057;-55
2023/12/19 02:48:58;;;;;;;33.55;22.63;;;;;;;4.97;100.00;102370.63;5034591;28;20095;-57
2023/12/19 02:51:24;;;;;;;34.60;22.15;;;;;;;4.98;100.00;102364.47;5036104;28;20048;-56
2023/12/19 02:53:50;;;;;;;33.65;22.27;;;;;;;4.97;100.00;102357.47;5031858;28;20475;-57
2023/12/19 02:56:15;;;;;;;35.90;22.08;;;;;;;4.95;100.00;102354.00;5032994;28;20044;-56
2023/12/19 02:58:40;;;;;;;31.88;21.88;;;;;;;4.97;100.00;102346.06;5035213;28;20017;-57
2023/12/19 03:01:06;;;;;;;29.48;20.15;;;;;;;4.96;100.00;102334.69;5034254;28;20029;-58
2023/12/19 03:03:32;;;;;;;31.00;21.65;;;;;;;4.97;100.00;102331.13;5034686;28;20018;-56
2023/12/19 03:05:57;;;;;;;29.75;20.90;;;;;;;4.95;100.00;102335.59;5035497;28;20034;-55
2023/12/19 03:08:22;;;;;;;30.52;20.65;;;;;;;4.96;100.00;102334.69;5036237;28;20393;-57
2023/12/19 03:10:48;;;;;;;31.60;20.67;;;;;;;4.95;100.00;102326.81;5033673;28;20487;-57
2023/12/19 03:13:13;;;;;;;33.80;21.52;;;;;;;4.96;100.00;102323.28;5033481;28;20090;-56
2023/12/19 03:15:39;;;;;;;30.17;21.58;;;;;;;4.95;100.00;102325.06;5033538;28;20132;-58
2023/12/19 03:18:05;;;;;;;32.00;21.15;;;;;;;4.94;100.00;102314.56;5033203;28;20152;-56
2023/12/19 03:20:31;;;;;;;29.85;21.40;;;;;;;4.94;100.00;102304.03;5033670;28;20041;-58
2023/12/19 03:22:56;;;;;;;29.77;21.60;;;;;;;4.91;100.00;102297.09;5037911;28;20048;-58
2023/12/19 03:25:21;;;;;;;30.58;20.67;;;;;;;4.93;100.00;102295.28;5032157;28;20040;-58
2023/12/19 03:27:47;;;;;;;30.35;21.15;;;;;;;4.92;100.00;102298.81;5037017;28;20549;-57
2023/12/19 03:30:12;;;;;;;31.25;21.10;;;;;;;4.93;100.00;102289.13;5035186;28;20037;-56
2023/12/19 03:32:37;;;;;;;31.15;21.35;;;;;;;4.92;100.00;102272.47;5035698;28;20029;-57
2023/12/19 03:35:03;;;;;;;30.25;20.65;;;;;;;4.93;100.00;102263.69;5034464;28;20390;-58
2023/12/19 03:37:28;;;;;;;28.23;20.77;;;;;;;4.97;100.00;102261.81;5035227;28;20022;-57
2023/12/19 03:39:53;;;;;;;30.20;22.00;;;;;;;4.94;100.00;102265.38;5036351;28;20461;-57
2023/12/19 03:42:19;;;;;;;28.88;20.98;;;;;;;4.93;100.00;102258.41;5034267;28;20021;-57
2023/12/19 03:44:44;;;;;;;29.65;20.67;;;;;;;4.94;100.00;102257.50;5034287;28;20113;-58
2023/12/19 03:47:12;;;;;;;31.00;21.65;;;;;;;4.94;100.00;102256.63;5033786;28;20066;-58
2023/12/19 03:49:37;;;;;;;29.67;20.75;;;;;;;4.98;100.00;102250.38;5037128;28;20397;-57
2023/12/19 03:52:02;;;;;;;33.40;22.08;;;;;;;4.94;100.00;102254.00;5032095;28;20026;-58
2023/12/19 03:54:29;;;;;;;33.78;22.33;;;;;;;4.95;100.00;102259.22;5036047;28;20072;-57
2023/12/19 03:56:54;;;;;;;34.92;23.15;;;;;;;4.95;100.00;102240.78;5034650;28;20026;-58
2023/12/19 03:59:20;;;;;;;35.20;23.38;;;;;;;4.96;100.00;102234.63;5033235;28;21139;-56
2023/12/19 04:01:45;;;;;;;37.95;23.58;;;;;;;4.96;100.00;102225.84;5034009;28;20029;-57
2023/12/19 04:04:14;;;;;;;37.90;25.15;;;;;;;4.98;100.00;102230.19;5019653;28;20040;-58
2023/12/19 04:06:43;;;;;;;38.88;24.38;;;;;;;4.98;100.00;102227.53;5034304;28;20033;-58
2023/12/19 04:09:09;;;;;;;;;;;;;;;5.06;100.00;102224.66;5034917;28;20445;-57
2023/12/19 04:11:34;;;;;;;40.47;24.92;;;;;;;5.02;100.00;102224.81;5037516;28;19909;-58
2023/12/19 04:14:00;;;;;;;40.83;26.95;;;;;;;5.03;100.00;102223.88;5033224;28;20403;-57
2023/12/19 04:16:25;;;;;;;45.10;27.08;;;;;;;5.04;100.00;102223.00;5036840;28;20033;-57
2023/12/19 04:18:50;;;;;;;42.58;27.15;;;;;;;5.05;100.00;102227.34;5032860;28;20372;-58
2023/12/19 04:21:15;;;;;;;45.88;26.50;;;;;;;5.06;100.00;102218.53;5035671;28;20057;-58
2023/12/19 04:23:41;;;;;;;42.75;26.60;;;;;;;5.05;100.00;102220.31;5033962;28;20032;-58
2023/12/19 04:26:06;;;;;;;45.42;28.25;;;;;;;5.08;100.00;102201.78;5035504;28;20047;-58
2023/12/19 04:28:31;;;;;;;42.97;28.13;;;;;;;5.11;100.00;102204.31;5036123;28;20478;-58
2023/12/19 04:30:56;;;;;;;45.83;28.42;;;;;;;5.13;100.00;102193.72;5031346;28;20226;-58
2023/12/19 04:33:22;;;;;;;47.55;29.13;;;;;;;5.15;100.00;102199.81;5032035;28;20021;-58
2023/12/19 04:35:47;;;;;;;44.40;27.73;;;;;;;5.14;100.00;102185.75;5033734;28;20017;-57
2023/12/19 04:38:12;;;;;;;48.83;27.83;;;;;;;5.16;100.00;102183.97;5031164;28;20032;-57
2023/12/19 04:40:39;;;;;;;41.85;27.58;;;;;;;5.18;100.00;102166.34;5033784;28;20135;-57
2023/12/19 04:43:04;;;;;;;43.75;28.15;;;;;;;5.19;100.00;102165.41;5032472;28;20364;-57
2023/12/19 04:45:29;;;;;;;44.97;28.60;;;;;;;5.21;100.00;102157.44;5036535;28;20036;-57
2023/12/19 04:47:55;;;;;;;45.22;28.02;;;;;;;5.22;100.00;102148.66;5032995;28;20095;-57
2023/12/19 04:50:20;;;;;;;44.72;28.13;;;;;;;5.25;100.00;102151.19;5035431;28;20028;-56
2023/12/19 04:52:45;;;;;;;45.00;27.77;;;;;;;5.27;100.00;102146.72;5029471;28;20026;-58
2023/12/19 04:55:11;;;;;;;40.60;26.67;;;;;;;5.30;100.00;102146.63;5030037;28;20032;-56
2023/12/19 04:57:36;;;;;;;43.45;27.35;;;;;;;5.31;100.00;102145.72;5033102;28;20080;-58
2023/12/19 05:00:02;;;;;;;44.95;26.90;;;;;;;5.34;100.00;102142.97;5034812;28;20017;-58
2023/12/19 05:02:29;;;;;;;42.60;27.50;;;;;;;5.38;100.00;102133.22;5033705;28;20053;-58
2023/12/19 05:04:55;;;;;;;42.28;26.45;;;;;;;5.38;100.00;102131.41;5032383;28;20052;-57
2023/12/19 05:07:20;;;;;;;42.70;27.20;;;;;;;5.42;100.00;102136.59;5032823;28;20024;-57
2023/12/19 05:09:45;;;;;;;41.78;27.63;;;;;;;5.43;100.00;102133.91;5033067;28;20374;-57
2023/12/19 05:12:10;;;;;;;43.08;26.92;;;;;;;5.44;100.00;102140.88;5034698;28;20049;-56
2023/12/19 05:14:36;;;;;;;43.05;26.98;;;;;;;5.47;100.00;102147.84;5013476;28;20029;-57
2023/12/19 05:17:03;;;;;;;41.60;26.30;;;;;;;5.48;100.00;102147.78;5033290;28;20092;-56
2023/12/19 05:19:29;;;;;;;41.80;27.92;;;;;;;5.49;100.00;102151.25;5031104;28;20018;-59
2023/12/19 05:21:54;;;;;;;37.60;25.10;;;;;;;5.51;100.00;102149.44;5032574;28;20029;-54
2023/12/19 05:24:20;;;;;;;42.63;26.30;;;;;;;5.53;100.00;102145.84;5031697;28;20022;-56
2023/12/19 05:26:45;;;;;;;40.20;26.50;;;;;;;5.55;100.00;102144.00;5034713;28;20025;-56
2023/12/19 05:29:10;;;;;;;44.42;26.45;;;;;;;5.56;100.00;102137.84;5032908;28;20029;-57
2023/12/19 05:31:35;;;;;;;41.10;26.70;;;;;;;5.57;100.00;102139.53;5031942;28;20022;-56
2023/12/19 05:34:01;;;;;;;42.45;27.10;;;;;;;5.60;100.00;102137.75;5032830;28;20379;-56
2023/12/19 05:36:26;;;;;;;40.63;26.50;;;;;;;5.63;100.00;102129.69;5035041;28;20076;-57
2023/12/19 05:38:52;;;;;;;36.67;25.77;;;;;;;5.65;100.00;102131.38;5030283;28;20479;-56
2023/12/19 05:41:17;;;;;;;40.58;25.70;;;;;;;5.66;100.00;102127.84;5033789;28;20101;-55
2023/12/19 05:43:43;;;;;;;38.10;25.75;;;;;;;5.70;100.00;102131.22;5031328;28;20047;-57
2023/12/19 05:46:09;;;;;;;40.03;25.67;;;;;;;5.72;100.00;102119.69;5028768;28;20090;-56
2023/12/19 05:48:34;;;;;;;39.50;25.05;;;;;;;5.74;100.00;102109.09;5030119;28;20029;-56
2023/12/19 05:50:59;;;;;;;33.92;23.85;;;;;;;5.79;100.00;102103.66;5033351;28;20029;-56
2023/12/19 05:53:25;;;;;;;33.67;23.67;;;;;;;5.80;100.00;102098.34;5034214;28;20075;-56
2023/12/19 05:55:51;;;;;;;39.58;24.02;;;;;;;5.85;100.00;102093.75;5032171;28;20033;-53
2023/12/19 05:58:16;;;;;;;36.95;23.45;;;;;;;5.85;100.00;102088.47;5033295;28;20040;-55
2023/12/19 06:00:44;;;;;;;35.72;23.60;;;;;;;5.88;100.00;102088.38;5033505;28;20022;-54
2023/12/19 06:03:10;;;;;;;35.67;22.98;;;;;;;5.90;100.00;102094.44;5034026;28;20409;-56
2023/12/19 06:05:38;;;;;;;33.63;22.58;;;;;;;5.92;100.00;102094.38;5034115;28;20018;-57
2023/12/19 06:08:05;;;;;;;35.85;23.60;;;;;;;5.95;100.00;102088.16;5030164;28;20135;-55
2023/12/19 06:10:30;;;;;;;32.38;22.08;;;;;;;5.95;100.00;102089.00;5030612;28;20022;-56
2023/12/19 06:12:55;;;;;;;34.03;23.27;;;;;;;5.98;100.00;102088.91;5033575;28;20395;-56
2023/12/19 06:15:21;;;;;;;31.73;22.50;;;;;;;5.99;100.00;102090.63;5030372;28;20025;-57
2023/12/19 06:17:47;;;;;;;31.02;21.85;;;;;;;6.02;100.00;102089.66;5031354;28;20028;-57
2023/12/19 06:20:12;;;;;;;34.63;21.83;;;;;;;5.99;100.00;102093.25;5033795;28;20038;-57
2023/12/19 06:22:39;;;;;;;29.08;20.52;;;;;;;5.99;100.00;102079.22;5032715;28;20040;-57
2023/12/19 06:25:05;;;;;;;30.13;22.27;;;;;;;5.99;100.00;102071.31;5034512;28;20116;-56
2023/12/19 06:27:31;;;;;;;29.38;21.35;;;;;;;6.00;100.00;102068.63;5033330;28;20021;-56
2023/12/19 06:29:57;;;;;;;27.02;20.70;;;;;;;6.02;100.00;102077.31;5031597;28;20056;-56
2023/12/19 06:32:22;;;;;;;27.48;20.65;;;;;;;6.02;100.00;102081.75;5033544;28;20021;-56
2023/12/19 06:34:47;;;;;;;35.00;21.73;;;;;;;6.02;100.00;102084.38;5031223;28;20025;-56
2023/12/19 06:37:12;;;;;;;28.08;21.60;;;;;;;6.03;100.00;102073.78;5029420;28;20036;-57
2023/12/19 06:39:39;;;;;;;30.45;21.08;;;;;;;6.05;100.00;102079.00;5033102;28;20474;-56
2023/12/19 06:42:05;;;;;;;28.73;21.52;;;;;;;6.06;100.00;102071.03;5028969;28;20348;-57
2023/12/19 06:44:30;;;;;;;31.75;21.85;;;;;;;6.06;100.00;102065.75;5031972;28;20509;-56
2023/12/19 06:46:56;;;;;;;27.70;19.60;;;;;;;6.08;100.00;102055.16;5032000;28;20017;-55
2023/12/19 06:49:22;;;;;;;31.55;20.27;;;;;;;6.09;100.00;102070.03;5023118;28;20032;-55
2023/12/19 06:51:47;;;;;;;32.15;20.10;;;;;;;6.10;100.00;102067.34;5027814;28;20033;-56
2023/12/19 06:54:13;;;;;;;26.20;19.95;;;;;;;6.12;100.00;102059.38;5029738;28;20018;-54
2023/12/19 06:56:39;;;;;;;26.58;19.65;;;;;;;6.12;100.00;102064.66;5028048;28;20026;-54
2023/12/19 06:59:05;;;;;;;30.88;19.90;;;;;;;6.10;100.00;102070.00;5029329;28;20044;-56
2023/12/19 07:01:31;;;;;;;27.65;18.92;;;;;;;6.10;100.00;102055.94;5028059;28;20035;-56
2023/12/19 07:03:56;;;;;;;26.45;19.23;;;;;;;6.12;100.00;102062.00;5025858;28;20021;-52
2023/12/19 07:06:21;;;;;;;31.27;19.65;;;;;;;6.12;100.00;102054.09;5033893;28;20025;-53
2023/12/19 07:08:47;;;;;;;30.42;19.20;;;;;;;6.16;100.00;102061.00;5025383;28;20033;-52
2023/12/19 07:11:13;;;;;;;25.17;17.88;;;;;;;6.15;100.00;102046.06;5030005;28;20044;-56
2023/12/19 07:13:39;;;;;;;29.13;18.65;;;;;;;6.15;100.00;102056.63;5028552;28;20037;-55
2023/12/19 07:16:05;;;;;;;24.35;18.25;;;;;;;6.19;100.00;102050.31;5028907;28;20556;-58
2023/12/19 07:18:30;;;;;;;25.83;19.02;;;;;;;6.19;100.00;102060.84;5033784;28;20539;-57
2023/12/19 07:20:55;;;;;;;24.42;18.27;;;;;;;6.19;100.00;102052.94;5026448;28;20030;-57
2023/12/19 07:23:21;;;;;;;25.75;18.42;;;;;;;6.22;100.00;102047.53;5027390;28;20056;-57
2023/12/19 07:25:46;;;;;;;24.85;16.95;;;;;;;6.22;100.00;102044.06;5029238;28;20116;-58
2023/12/19 07:28:12;;;;;;;21.75;17.77;;;;;;;6.21;100.00;102032.66;5035406;28;20081;-58
2023/12/19 07:30:37;;;;;;;26.05;18.08;;;;;;;6.22;100.00;102020.31;5031687;28;20374;-58
2023/12/19 07:33:03;;;;;;;24.55;17.38;;;;;;;6.20;100.00;102035.34;5034883;28;20108;-57
2023/12/19 07:35:28;;;;;;;25.85;17.88;;;;;;;6.16;100.00;102036.38;5040407;28;20025;-57
2023/12/19 07:37:53;;;;;;;29.95;18.65;;;;;;;6.15;100.00;102037.31;5034176;28;20053;-57
2023/12/19 07:40:18;;;;;;;26.20;18.45;;;;;;;6.15;100.00;102040.81;5041868;28;20037;-57
2023/12/19 07:42:44;;;;;;;22.33;17.77;;;;;;;6.17;100.00;102040.75;5040040;28;20559;-58
2023/12/19 07:45:13;;;;;;;27.05;17.95;;;;;;;6.13;100.00;102044.41;5039732;28;20017;-57
2023/12/19 07:47:38;;;;;;;26.52;18.27;;;;;;;6.13;100.00;102045.28;5036301;28;20051;-57
2023/12/19 07:50:05;;;;;;;23.77;17.85;;;;;;;6.12;100.00;102040.91;5036287;28;20033;-58
2023/12/19 07:52:30;;;;;;;24.60;17.63;;;;;;;6.13;100.00;102031.22;5033025;28;20029;-56
2023/12/19 07:54:55;;;;;;;25.73;17.58;;;;;;;6.13;100.00;102032.09;5040565;28;20028;-57
2023/12/19 07:57:21;;;;;;;25.95;17.92;;;;;;;6.15;100.00;102021.47;5037763;28;20481;-57
2023/12/19 07:59:46;;;;;;;23.45;16.88;;;;;;;6.14;100.00;102025.03;5040323;28;20039;-57
2023/12/19 08:02:11;;;;;;;27.40;17.35;;;;;;;6.13;100.00;102029.47;5032194;28;20045;-57
2023/12/19 08:04:37;;;;;;;23.73;17.17;;;;;;;6.17;100.00;102024.91;5043467;28;20100;-57
2023/12/19 08:07:03;;;;;;;26.25;17.02;;;;;;;6.15;100.00;102013.56;5038714;28;20029;-58
2023/12/19 08:09:29;;;;;;;26.25;17.58;;;;;;;6.15;100.00;102008.28;5041191;28;20055;-57
2023/12/19 08:11:56;;;;;;;28.05;17.55;;;;;;;6.14;100.00;102004.78;5041620;28;20029;-59
2023/12/19 08:14:21;;;;;;;28.23;18.95;;;;;;;6.13;100.00;102010.13;5036184;28;20037;-59
2023/12/19 08:16:47;;;;;;;22.90;17.25;;;;;;;6.13;100.00;102024.19;5037359;28;20485;-58
2023/12/19 08:19:12;;;;;;;28.00;17.65;;;;;;;6.11;100.00;102021.59;5039770;28;20029;-58
2023/12/19 08:21:52;;;;;;;26.33;17.88;;;;;;;6.10;100.00;102019.03;5045453;28;20033;-59
2023/12/19 08:24:17;;;;;;;27.42;16.33;;;;;;;6.08;100.00;102016.44;5036127;28;20394;-58
2023/12/19 08:26:49;;;;;;;25.90;18.63;;;;;;;6.07;100.00;102014.72;5037613;28;20033;-59
2023/12/19 08:29:16;;;;;;;27.20;17.85;;;;;;;6.06;100.00;102007.75;5039979;28;20056;-59
2023/12/19 08:31:42;;;;;;;26.10;17.20;;;;;;;6.05;100.00;102006.00;5046753;28;20032;-59
2023/12/19 08:34:07;;;;;;;25.55;16.75;;;;;;;6.03;100.00;102007.84;5023462;28;20029;-59
2023/12/19 08:36:33;;;;;;;28.35;18.48;;;;;;;6.03;100.00;102009.59;5039251;28;20108;-60
2023/12/19 08:38:59;;;;;;;28.20;18.10;;;;;;;6.02;100.00;102023.72;5041718;28;20055;-59
2023/12/19 08:41:25;;;;;;;30.52;18.13;;;;;;;6.01;100.00;102009.69;5036206;28;20040;-59
2023/12/19 08:43:51;;;;;;;26.17;17.95;;;;;;;6.01;100.00;102016.72;5040592;28;20022;-60
2023/12/19 08:46:17;;;;;;;28.80;18.75;;;;;;;6.00;100.00;102007.13;5044936;28;20375;-60
2023/12/19 08:48:43;;;;;;;25.33;18.20;;;;;;;5.99;100.00;102010.66;5039823;28;20017;-60
2023/12/19 08:51:09;;;;;;;27.83;18.13;;;;;;;5.98;100.00;102003.66;5035088;28;20022;-60
2023/12/19 08:53:35;;;;;;;26.27;17.98;;;;;;;5.98;100.00;101999.25;5018341;28;20037;-59
2023/12/19 08:56:00;;;;;;;27.73;19.08;;;;;;;5.98;100.00;101996.63;5040773;28;20479;-59
2023/12/19 08:58:25;;;;;;;26.08;17.90;;;;;;;5.98;100.00;101993.97;5035791;28;20075;-59
2023/12/19 09:00:51;;;;;;;25.75;17.55;;;;;;;5.97;100.00;101991.41;5040179;28;20062;-60
2023/12/19 09:03:16;;;;;;;25.83;17.48;;;;;;;5.97;100.00;101994.91;5036578;28;20092;-60
2023/12/19 09:05:41;;;;;;;27.08;18.05;;;;;;;5.98;100.00;102004.53;5035181;28;20394;-60
2023/12/19 09:08:07;;;;;;;24.30;17.17;;;;;;;5.97;100.00;101988.78;5035489;28;20086;-59
2023/12/19 09:10:32;;;;;;;26.42;17.52;;;;;;;5.97;100.00;101991.41;5039305;28;20056;-59
2023/12/19 09:12:57;;;;;;;22.90;15.85;;;;;;;5.97;100.00;101999.31;5038502;28;20048;-59
2023/12/19 09:15:23;;;;;;;21.15;15.90;;;;;;;5.99;100.00;101998.31;5031555;28;20044;-59
2023/12/19 09:17:48;;;;;;;22.40;15.40;;;;;;;5.97;100.00;101989.63;5036369;28;20032;-59
2023/12/19 09:20:13;;;;;;;20.85;15.35;;;;;;;5.96;100.00;101979.97;5036368;28;20434;-59
2023/12/19 09:22:39;;;;;;;26.98;16.02;;;;;;;5.96;100.00;101976.47;5042873;28;20021;-59
2023/12/19 09:25:13;;;;;;;22.65;16.10;;;;;;;5.96;100.00;101976.47;5034942;28;20025;-57
2023/12/19 09:27:38;;;;;;;21.90;15.20;;;;;;;5.96;100.00;101968.53;5035078;28;20037;-59
2023/12/19 09:30:04;;;;;;;20.75;14.88;;;;;;;5.95;100.00;101966.84;5033538;28;20501;-60
2023/12/19 09:32:30;;;;;;;19.92;14.77;;;;;;;5.96;100.00;101971.19;5035497;28;20082;-59
2023/12/19 09:34:55;;;;;;;20.10;14.88;;;;;;;5.96;100.00;101956.25;5033984;28;20105;-60
2023/12/19 09:37:23;;;;;;;21.45;14.88;;;;;;;5.95;100.00;101957.16;5029512;28;20040;-59
2023/12/19 09:39:48;;;;;;;19.77;13.85;;;;;;;5.94;100.00;101965.97;5032748;28;20071;-60
2023/12/19 09:42:17;;;;;;;21.80;13.38;;;;;;;5.96;100.00;101968.53;5039612;28;20021;-59
2023/12/19 09:44:42;;;;;;;21.95;13.93;;;;;;;5.98;100.00;101958.81;5039595;28;20027;-58
2023/12/19 09:47:08;;;;;;;19.15;13.35;;;;;;;5.97;100.00;101950.06;5033256;28;20382;-59
2023/12/19 09:49:39;;;;;;;17.02;12.77;;;;;;;5.98;100.00;101951.78;5033669;28;20025;-59
2023/12/19 09:52:06;;;;;;;17.00;12.40;;;;;;;5.98;100.00;101951.78;5034087;28;20029;-60
2023/12/19 09:54:31;;;;;;;19.02;13.05;;;;;;;5.99;100.00;101944.72;5035293;28;20440;-60
2023/12/19 09:56:58;;;;;;;16.48;12.50;;;;;;;5.99;100.00;101942.94;5037687;28;20100;-58
2023/12/19 09:59:24;;;;;;;15.02;12.68;;;;;;;6.01;100.00;101927.94;5035482;28;20052;-59
2023/12/19 10:01:50;;;;;;;17.98;12.23;;;;;;;6.01;100.00;101933.22;5034053;28;20112;-59
2023/12/19 10:04:16;;;;;;;15.43;12.25;;;;;;;6.02;100.00;101927.00;5030850;28;20505;-59
2023/12/19 10:06:58;;;;;;;16.08;12.05;;;;;;;6.04;100.00;101924.31;5032296;28;20028;-60
2023/12/19 10:09:24;;;;;;;14.52;11.43;;;;;;;6.05;100.00;101926.03;5033213;28;20046;-60
2023/12/19 10:12:06;;;;;;;14.32;12.18;;;;;;;6.07;100.00;101911.00;5035055;28;20025;-60
2023/12/19 10:14:35;;;;;;;16.33;12.35;;;;;;;6.07;100.00;101914.47;5035035;28;20041;-59
2023/12/19 10:17:04;;;;;;;17.23;12.52;;;;;;;6.09;100.00;101922.34;5033778;28;20033;-60
2023/12/19 10:19:30;;;;;;;17.42;12.38;;;;;;;6.09;100.00;101925.81;5036488;28;20022;-60
2023/12/19 10:22:12;;;;;;;15.75;11.48;;;;;;;6.10;100.00;101908.25;5039146;28;20411;-59
2023/12/19 10:24:38;;;;;;;15.57;11.95;;;;;;;6.11;100.00;101913.47;5036024;28;20134;-60
2023/12/19 10:27:08;;;;;;;16.58;12.20;;;;;;;6.10;100.00;101914.38;5033359;28;20108;-59
2023/12/19 10:29:38;;;;;;;17.17;12.18;;;;;;;6.11;100.00;101905.53;5034247;28;20040;-59
2023/12/19 10:32:15;;;;;;;16.23;12.35;;;;;;;6.13;100.00;101901.97;5029605;28;20041;-60
2023/12/19 10:34:44;;;;;;;16.63;12.13;;;;;;;6.13;100.00;101880.88;5030974;28;20480;-60
2023/12/19 10:37:17;;;;;;;16.20;12.30;;;;;;;6.14;100.00;101883.44;5017117;28;20033;-60
2023/12/19 10:39:43;;;;;;;16.95;12.18;;;;;;;6.16;100.00;101876.34;5038042;28;20112;-60
2023/12/19 10:42:12;;;;;;;15.57;12.05;;;;;;;6.15;100.00;101882.53;5035627;28;20454;-59
2023/12/19 10:44:41;;;;;;;17.63;12.60;;;;;;;6.17;100.00;101874.56;5033273;28;20045;-59
2023/12/19 10:47:08;;;;;;;16.00;12.57;;;;;;;6.18;100.00;101878.88;5030436;28;20033;-60
2023/12/19 10:49:33;;;;;;;17.80;12.50;;;;;;;6.18;100.00;101870.97;5038301;28;20058;-58
2023/12/19 10:52:06;;;;;;;16.48;12.32;;;;;;;6.20;100.00;101871.78;5036149;28;20037;-59
2023/12/19 10:54:35;;;;;;;17.55;12.93;;;;;;;6.20;100.00;101856.81;5030701;28;20040;-60
2023/12/19 10:57:15;;;;;;;;;;;;;;;6.24;100.00;101842.56;5037511;28;20501;-59
2023/12/19 10:59:50;;;;;;;16.02;11.70;;;;;;;6.23;100.00;101838.22;5034648;28;19905;-59
2023/12/19 11:02:27;;;;;;;17.45;13.35;;;;;;;6.22;100.00;101825.94;5039654;28;20037;-59
2023/12/19 11:05:00;;;;;;;16.90;12.68;;;;;;;6.23;100.00;101811.84;5034715;28;20029;-58